sensor_id;sensor_type;location;lat;lon;timestamp;pressure;altitude;pressure_sealevel;temperature;humidity
73242;BME280;65659;49.234;-2.094;2023-04-28T00:01:11;99980.66;;;19.01;50.59
73242;BME280;65659;49.234;-2.094;2023-04-28T00:03:37;99979.00;;;19.02;50.55
73242;BME280;65659;49.234;-2.094;2023-04-28T00:06:03;99976.00;;;19.23;50.67
73242;BME280;65659;49.234;-2.094;2023-04-28T00:08:28;99977.62;;;18.92;50.59
73242;BME280;65659;49.234;-2.094;2023-04-28T00:10:54;99982.20;;;19.31;50.36
73242;BME280;65659;49.234;-2.094;2023-04-28T00:13:20;99981.53;;;18.98;50.46
73242;BME280;65659;49.234;-2.094;2023-04-28T00:15:46;99982.23;;;19.66;50.07
73242;BME280;65659;49.234;-2.094;2023-04-28T00:18:11;99977.11;;;19.05;50.23
73242;BME280;65659;49.234;-2.094;2023-04-28T00:20:37;99977.25;;;19.42;49.97
73242;BME280;65659;49.234;-2.094;2023-04-28T00:23:03;99975.71;;;18.89;50.42
73242;BME280;65659;49.234;-2.094;2023-04-28T00:25:28;99977.45;;;19.14;49.99
73242;BME280;65659;49.234;-2.094;2023-04-28T00:27:54;99976.58;;;19.18;49.88
73242;BME280;65659;49.234;-2.094;2023-04-28T00:30:20;99976.20;;;19.18;49.88
73242;BME280;65659;49.234;-2.094;2023-04-28T00:32:45;99975.30;;;19.53;50.10
73242;BME280;65659;49.234;-2.094;2023-04-28T00:35:11;99975.25;;;19.18;50.68
73242;BME280;65659;49.234;-2.094;2023-04-28T00:37:38;99974.85;;;18.99;51.15
73242;BME280;65659;49.234;-2.094;2023-04-28T00:40:03;99979.21;;;19.11;50.94
73242;BME280;65659;49.234;-2.094;2023-04-28T00:42:29;99982.56;;;19.19;51.21
73242;BME280;65659;49.234;-2.094;2023-04-28T00:44:54;99983.47;;;18.93;51.22
73242;BME280;65659;49.234;-2.094;2023-04-28T00:47:20;99981.37;;;18.95;51.43
73242;BME280;65659;49.234;-2.094;2023-04-28T00:49:46;99982.46;;;18.70;51.49
73242;BME280;65659;49.234;-2.094;2023-04-28T00:52:11;99978.95;;;18.99;50.99
73242;BME280;65659;49.234;-2.094;2023-04-28T00:54:37;99981.06;;;18.69;50.62
73242;BME280;65659;49.234;-2.094;2023-04-28T00:57:03;99978.98;;;18.92;50.56
73242;BME280;65659;49.234;-2.094;2023-04-28T00:59:29;99983.03;;;19.28;50.28
73242;BME280;65659;49.234;-2.094;2023-04-28T01:01:55;99980.90;;;19.01;50.39
73242;BME280;65659;49.234;-2.094;2023-04-28T01:04:22;99984.99;;;19.08;50.67
73242;BME280;65659;49.234;-2.094;2023-04-28T01:06:47;99979.72;;;19.12;50.55
73242;BME280;65659;49.234;-2.094;2023-04-28T01:09:12;99982.00;;;18.96;50.37
73242;BME280;65659;49.234;-2.094;2023-04-28T01:11:38;99983.90;;;18.98;50.23
73242;BME280;65659;49.234;-2.094;2023-04-28T01:14:03;99984.33;;;19.26;50.15
73242;BME280;65659;49.234;-2.094;2023-04-28T01:16:29;99981.34;;;19.26;50.14
73242;BME280;65659;49.234;-2.094;2023-04-28T01:18:55;99985.92;;;18.95;50.24
73242;BME280;65659;49.234;-2.094;2023-04-28T01:21:25;99990.98;;;18.69;50.33
73242;BME280;65659;49.234;-2.094;2023-04-28T01:23:46;99987.72;;;19.18;50.20
73242;BME280;65659;49.234;-2.094;2023-04-28T01:26:12;99989.10;;;18.73;50.12
73242;BME280;65659;49.234;-2.094;2023-04-28T01:28:38;99991.55;;;19.14;50.30
73242;BME280;65659;49.234;-2.094;2023-04-28T01:31:04;99995.29;;;18.78;50.10
73242;BME280;65659;49.234;-2.094;2023-04-28T01:33:30;99995.02;;;19.12;50.30
73242;BME280;65659;49.234;-2.094;2023-04-28T01:35:57;99995.01;;;18.64;50.32
73242;BME280;65659;49.234;-2.094;2023-04-28T01:38:21;99997.55;;;19.18;50.31
73242;BME280;65659;49.234;-2.094;2023-04-28T01:40:47;99998.53;;;19.04;50.54
73242;BME280;65659;49.234;-2.094;2023-04-28T01:43:13;99997.26;;;19.09;50.42
73242;BME280;65659;49.234;-2.094;2023-04-28T01:45:39;99996.58;;;18.91;50.37
73242;BME280;65659;49.234;-2.094;2023-04-28T01:48:05;100001.67;;;19.17;50.29
73242;BME280;65659;49.234;-2.094;2023-04-28T01:50:30;100001.17;;;19.09;50.45
73242;BME280;65659;49.234;-2.094;2023-04-28T01:52:56;100011.05;;;19.08;50.52
73242;BME280;65659;49.234;-2.094;2023-04-28T01:55:22;100007.26;;;18.85;50.90
73242;BME280;65659;49.234;-2.094;2023-04-28T01:57:48;100010.53;;;18.73;50.72
73242;BME280;65659;49.234;-2.094;2023-04-28T02:00:14;100013.27;;;19.08;50.45
73242;BME280;65659;49.234;-2.094;2023-04-28T02:02:39;100011.23;;;19.03;50.42
73242;BME280;65659;49.234;-2.094;2023-04-28T02:05:06;100011.02;;;18.93;50.38
73242;BME280;65659;49.234;-2.094;2023-04-28T02:07:31;100015.87;;;18.69;50.37
73242;BME280;65659;49.234;-2.094;2023-04-28T02:09:57;100019.08;;;18.69;50.31
73242;BME280;65659;49.234;-2.094;2023-04-28T02:12:23;100025.36;;;18.75;50.58
73242;BME280;65659;49.234;-2.094;2023-04-28T02:14:49;100024.78;;;18.76;50.49
73242;BME280;65659;49.234;-2.094;2023-04-28T02:17:14;100024.18;;;18.73;50.43
73242;BME280;65659;49.234;-2.094;2023-04-28T02:19:40;100025.72;;;18.59;50.64
73242;BME280;65659;49.234;-2.094;2023-04-28T02:22:05;100029.16;;;18.65;50.89
73242;BME280;65659;49.234;-2.094;2023-04-28T02:24:34;100029.51;;;18.55;50.59
73242;BME280;65659;49.234;-2.094;2023-04-28T02:26:57;100028.98;;;17.98;51.09
73242;BME280;65659;49.234;-2.094;2023-04-28T02:29:23;100027.08;;;18.01;50.97
73242;BME280;65659;49.234;-2.094;2023-04-28T02:31:49;100028.96;;;18.14;51.10
73242;BME280;65659;49.234;-2.094;2023-04-28T02:34:15;100032.58;;;18.21;50.84
73242;BME280;65659;49.234;-2.094;2023-04-28T02:36:40;100039.62;;;18.34;50.90
73242;BME280;65659;49.234;-2.094;2023-04-28T02:39:07;100040.42;;;18.07;50.87
73242;BME280;65659;49.234;-2.094;2023-04-28T02:41:32;100038.81;;;18.07;50.79
73242;BME280;65659;49.234;-2.094;2023-04-28T02:43:57;100040.91;;;17.88;51.02
73242;BME280;65659;49.234;-2.094;2023-04-28T02:46:23;100036.96;;;18.07;50.93
73242;BME280;65659;49.234;-2.094;2023-04-28T02:48:49;100034.59;;;18.09;50.87
73242;BME280;65659;49.234;-2.094;2023-04-28T02:51:14;100042.09;;;18.07;50.82
73242;BME280;65659;49.234;-2.094;2023-04-28T02:53:40;100036.33;;;17.75;51.21
73242;BME280;65659;49.234;-2.094;2023-04-28T02:56:06;100040.59;;;18.06;51.13
73242;BME280;65659;49.234;-2.094;2023-04-28T02:58:31;100044.88;;;17.63;51.47
73242;BME280;65659;49.234;-2.094;2023-04-28T03:00:57;100044.39;;;17.98;51.14
73242;BME280;65659;49.234;-2.094;2023-04-28T03:03:23;100051.08;;;17.76;51.01
73242;BME280;65659;49.234;-2.094;2023-04-28T03:05:49;100040.44;;;17.66;51.63
73242;BME280;65659;49.234;-2.094;2023-04-28T03:08:14;100043.28;;;17.77;51.26
73242;BME280;65659;49.234;-2.094;2023-04-28T03:10:39;100046.52;;;17.56;51.24
73242;BME280;65659;49.234;-2.094;2023-04-28T03:13:04;100041.95;;;17.61;51.47
73242;BME280;65659;49.234;-2.094;2023-04-28T03:15:30;100046.38;;;17.70;51.31
73242;BME280;65659;49.234;-2.094;2023-04-28T03:17:55;100047.19;;;17.63;51.38
73242;BME280;65659;49.234;-2.094;2023-04-28T03:20:21;100046.71;;;17.52;51.53
73242;BME280;65659;49.234;-2.094;2023-04-28T03:22:47;100050.30;;;17.66;51.19
73242;BME280;65659;49.234;-2.094;2023-04-28T03:25:13;100052.62;;;17.69;51.13
73242;BME280;65659;49.234;-2.094;2023-04-28T03:27:38;100059.25;;;17.32;51.60
73242;BME280;65659;49.234;-2.094;2023-04-28T03:30:06;100059.59;;;17.35;51.47
73242;BME280;65659;49.234;-2.094;2023-04-28T03:32:30;100067.77;;;17.41;51.41
73242;BME280;65659;49.234;-2.094;2023-04-28T03:34:56;100061.10;;;17.41;51.31
73242;BME280;65659;49.234;-2.094;2023-04-28T03:37:21;100063.84;;;17.89;51.19
73242;BME280;65659;49.234;-2.094;2023-04-28T03:39:47;100065.81;;;17.27;51.42
73242;BME280;65659;49.234;-2.094;2023-04-28T03:42:12;100067.68;;;17.26;51.42
73242;BME280;65659;49.234;-2.094;2023-04-28T03:44:37;100071.71;;;17.12;51.68
73242;BME280;65659;49.234;-2.094;2023-04-28T03:47:03;100074.86;;;17.31;51.25
73242;BME280;65659;49.234;-2.094;2023-04-28T03:49:28;100063.52;;;16.99;51.71
73242;BME280;65659;49.234;-2.094;2023-04-28T03:51:53;100072.81;;;16.99;51.32
73242;BME280;65659;49.234;-2.094;2023-04-28T03:54:19;100070.39;;;17.19;51.29
73242;BME280;65659;49.234;-2.094;2023-04-28T03:56:45;100073.75;;;16.90;51.33
73242;BME280;65659;49.234;-2.094;2023-04-28T03:59:10;100072.52;;;16.95;51.44
73242;BME280;65659;49.234;-2.094;2023-04-28T04:01:35;100070.24;;;17.03;51.31
73242;BME280;65659;49.234;-2.094;2023-04-28T04:04:01;100071.80;;;16.75;51.75
73242;BME280;65659;49.234;-2.094;2023-04-28T04:06:26;100070.77;;;16.76;51.65
73242;BME280;65659;49.234;-2.094;2023-04-28T04:08:52;100072.27;;;16.77;51.49
73242;BME280;65659;49.234;-2.094;2023-04-28T04:11:17;100084.83;;;16.46;51.87
73242;BME280;65659;49.234;-2.094;2023-04-28T04:13:43;100084.02;;;16.68;51.86
73242;BME280;65659;49.234;-2.094;2023-04-28T04:16:08;100077.91;;;16.32;51.96
73242;BME280;65659;49.234;-2.094;2023-04-28T04:18:34;100083.63;;;16.51;51.60
73242;BME280;65659;49.234;-2.094;2023-04-28T04:20:59;100076.64;;;17.06;51.42
73242;BME280;65659;49.234;-2.094;2023-04-28T04:23:25;100084.83;;;16.93;51.64
73242;BME280;65659;49.234;-2.094;2023-04-28T04:25:50;100078.47;;;16.43;51.59
73242;BME280;65659;49.234;-2.094;2023-04-28T04:28:15;100078.83;;;16.85;51.62
73242;BME280;65659;49.234;-2.094;2023-04-28T04:30:40;100081.45;;;16.80;51.63
73242;BME280;65659;49.234;-2.094;2023-04-28T04:33:06;100081.11;;;16.71;51.63
73242;BME280;65659;49.234;-2.094;2023-04-28T04:35:31;100079.84;;;16.74;51.47
73242;BME280;65659;49.234;-2.094;2023-04-28T04:37:57;100080.38;;;16.68;51.53
73242;BME280;65659;49.234;-2.094;2023-04-28T04:40:22;100082.27;;;16.34;51.57
73242;BME280;65659;49.234;-2.094;2023-04-28T04:42:49;100081.17;;;16.31;51.52
73242;BME280;65659;49.234;-2.094;2023-04-28T04:45:13;100096.82;;;16.73;51.24
73242;BME280;65659;49.234;-2.094;2023-04-28T04:47:39;100089.80;;;16.47;51.53
73242;BME280;65659;49.234;-2.094;2023-04-28T04:50:04;100093.85;;;16.17;51.58
73242;BME280;65659;49.234;-2.094;2023-04-28T04:52:30;100085.46;;;16.21;51.92
73242;BME280;65659;49.234;-2.094;2023-04-28T04:54:54;100097.08;;;16.07;51.69
73242;BME280;65659;49.234;-2.094;2023-04-28T04:57:20;100104.72;;;16.40;51.54
73242;BME280;65659;49.234;-2.094;2023-04-28T04:59:45;100104.56;;;16.28;51.53
73242;BME280;65659;49.234;-2.094;2023-04-28T05:02:11;100105.64;;;16.19;51.61
73242;BME280;65659;49.234;-2.094;2023-04-28T05:04:37;100105.59;;;16.23;51.33
73242;BME280;65659;49.234;-2.094;2023-04-28T05:07:02;100110.42;;;16.09;51.59
73242;BME280;65659;49.234;-2.094;2023-04-28T05:09:27;100108.86;;;15.89;51.80
73242;BME280;65659;49.234;-2.094;2023-04-28T05:11:53;100112.16;;;16.11;51.71
73242;BME280;65659;49.234;-2.094;2023-04-28T05:14:18;100115.73;;;16.15;51.11
73242;BME280;65659;49.234;-2.094;2023-04-28T05:16:44;100116.27;;;15.90;51.97
73242;BME280;65659;49.234;-2.094;2023-04-28T05:19:09;100122.16;;;16.09;52.21
73242;BME280;65659;49.234;-2.094;2023-04-28T05:21:35;100120.01;;;15.82;52.83
73242;BME280;65659;49.234;-2.094;2023-04-28T05:24:00;100126.41;;;15.76;52.96
73242;BME280;65659;49.234;-2.094;2023-04-28T05:26:26;100128.92;;;15.63;53.36
73242;BME280;65659;49.234;-2.094;2023-04-28T05:28:51;100129.64;;;15.34;53.55
73242;BME280;65659;49.234;-2.094;2023-04-28T05:31:16;100138.35;;;15.54;53.66
73242;BME280;65659;49.234;-2.094;2023-04-28T05:33:41;100136.70;;;15.62;53.59
73242;BME280;65659;49.234;-2.094;2023-04-28T05:36:07;100137.85;;;15.43;54.01
73242;BME280;65659;49.234;-2.094;2023-04-28T05:38:32;100131.34;;;15.31;54.30
73242;BME280;65659;49.234;-2.094;2023-04-28T05:40:58;100133.21;;;16.06;53.88
73242;BME280;65659;49.234;-2.094;2023-04-28T05:43:23;100135.65;;;15.91;53.85
73242;BME280;65659;49.234;-2.094;2023-04-28T05:45:49;100137.80;;;15.69;53.84
73242;BME280;65659;49.234;-2.094;2023-04-28T05:48:14;100137.37;;;15.42;53.93
73242;BME280;65659;49.234;-2.094;2023-04-28T05:50:40;100141.83;;;15.62;54.05
73242;BME280;65659;49.234;-2.094;2023-04-28T05:53:05;100136.08;;;15.90;53.54
73242;BME280;65659;49.234;-2.094;2023-04-28T05:55:31;100144.59;;;15.84;53.69
73242;BME280;65659;49.234;-2.094;2023-04-28T05:57:56;100148.96;;;15.79;53.59
73242;BME280;65659;49.234;-2.094;2023-04-28T06:00:21;100142.30;;;15.42;53.87
73242;BME280;65659;49.234;-2.094;2023-04-28T06:02:46;100142.23;;;15.46;53.63
73242;BME280;65659;49.234;-2.094;2023-04-28T06:05:12;100151.78;;;15.86;52.87
73242;BME280;65659;49.234;-2.094;2023-04-28T06:07:37;100146.94;;;15.30;53.34
73242;BME280;65659;49.234;-2.094;2023-04-28T06:10:04;100153.04;;;15.57;52.92
73242;BME280;65659;49.234;-2.094;2023-04-28T06:12:28;100150.84;;;15.28;53.28
73242;BME280;65659;49.234;-2.094;2023-04-28T06:14:54;100157.17;;;15.74;52.98
73242;BME280;65659;49.234;-2.094;2023-04-28T06:17:19;100161.23;;;15.05;53.33
73242;BME280;65659;49.234;-2.094;2023-04-28T06:19:45;100163.25;;;15.36;52.87
73242;BME280;65659;49.234;-2.094;2023-04-28T06:22:10;100161.41;;;15.78;52.57
73242;BME280;65659;49.234;-2.094;2023-04-28T06:24:36;100165.98;;;15.77;52.70
73242;BME280;65659;49.234;-2.094;2023-04-28T06:27:01;100165.38;;;16.16;52.60
73242;BME280;65659;49.234;-2.094;2023-04-28T06:29:27;100168.77;;;15.81;52.48
73242;BME280;65659;49.234;-2.094;2023-04-28T06:31:52;100173.80;;;15.92;52.39
73242;BME280;65659;49.234;-2.094;2023-04-28T06:34:17;100157.43;;;16.18;52.46
73242;BME280;65659;49.234;-2.094;2023-04-28T06:36:43;100170.61;;;15.60;52.54
73242;BME280;65659;49.234;-2.094;2023-04-28T06:39:08;100174.31;;;16.25;51.92
73242;BME280;65659;49.234;-2.094;2023-04-28T06:41:33;100177.44;;;16.36;51.93
73242;BME280;65659;49.234;-2.094;2023-04-28T06:43:59;100183.50;;;16.42;51.84
73242;BME280;65659;49.234;-2.094;2023-04-28T06:46:24;100177.86;;;16.30;51.93
73242;BME280;65659;49.234;-2.094;2023-04-28T06:48:50;100183.27;;;16.46;51.56
73242;BME280;65659;49.234;-2.094;2023-04-28T06:51:30;100183.30;;;16.52;51.64
73242;BME280;65659;49.234;-2.094;2023-04-28T06:53:41;100188.00;;;15.78;51.95
73242;BME280;65659;49.234;-2.094;2023-04-28T06:56:06;100183.83;;;15.88;51.61
73242;BME280;65659;49.234;-2.094;2023-04-28T06:58:32;100194.00;;;16.33;50.86
73242;BME280;65659;49.234;-2.094;2023-04-28T07:00:57;100185.20;;;16.35;50.71
73242;BME280;65659;49.234;-2.094;2023-04-28T07:03:22;100197.76;;;16.34;50.25
73242;BME280;65659;49.234;-2.094;2023-04-28T07:05:48;100202.24;;;16.64;50.14
73242;BME280;65659;49.234;-2.094;2023-04-28T07:08:13;100200.85;;;16.07;50.15
73242;BME280;65659;49.234;-2.094;2023-04-28T07:10:38;100211.89;;;16.21;49.87
73242;BME280;65659;49.234;-2.094;2023-04-28T07:13:04;100214.24;;;16.68;49.58
73242;BME280;65659;49.234;-2.094;2023-04-28T07:15:29;100218.31;;;15.99;49.67
73242;BME280;65659;49.234;-2.094;2023-04-28T07:17:55;100217.53;;;16.71;49.28
73242;BME280;65659;49.234;-2.094;2023-04-28T07:20:20;100220.80;;;16.73;49.41
73242;BME280;65659;49.234;-2.094;2023-04-28T07:22:46;100227.42;;;16.35;49.28
73242;BME280;65659;49.234;-2.094;2023-04-28T07:25:11;100232.35;;;16.63;48.60
73242;BME280;65659;49.234;-2.094;2023-04-28T07:27:40;100233.53;;;16.62;48.36
73242;BME280;65659;49.234;-2.094;2023-04-28T07:30:08;100229.16;;;16.83;47.83
73242;BME280;65659;49.234;-2.094;2023-04-28T07:32:28;100229.57;;;16.47;47.81
73242;BME280;65659;49.234;-2.094;2023-04-28T07:34:53;100242.05;;;17.05;47.10
73242;BME280;65659;49.234;-2.094;2023-04-28T07:37:18;100245.64;;;16.55;47.54
73242;BME280;65659;49.234;-2.094;2023-04-28T07:39:46;100246.96;;;16.46;46.72
73242;BME280;65659;49.234;-2.094;2023-04-28T07:42:11;100250.72;;;16.70;46.55
73242;BME280;65659;49.234;-2.094;2023-04-28T07:44:40;100252.09;;;17.15;46.25
73242;BME280;65659;49.234;-2.094;2023-04-28T07:47:13;100250.45;;;16.99;46.17
73242;BME280;65659;49.234;-2.094;2023-04-28T07:49:27;100263.22;;;16.74;45.96
73242;BME280;65659;49.234;-2.094;2023-04-28T07:51:57;100259.50;;;17.33;45.91
73242;BME280;65659;49.234;-2.094;2023-04-28T07:54:22;100267.58;;;17.06;45.58
73242;BME280;65659;49.234;-2.094;2023-04-28T07:59:19;100264.65;;;16.98;44.65
73242;BME280;65659;49.234;-2.094;2023-04-28T08:02:01;100259.80;;;17.46;44.26
73242;BME280;65659;49.234;-2.094;2023-04-28T08:04:15;100258.17;;;17.76;44.20
73242;BME280;65659;49.234;-2.094;2023-04-28T08:06:43;100256.89;;;17.36;44.31
73242;BME280;65659;49.234;-2.094;2023-04-28T08:08:54;100253.01;;;17.85;44.24
73242;BME280;65659;49.234;-2.094;2023-04-28T08:11:25;100259.23;;;17.85;43.88
73242;BME280;65659;49.234;-2.094;2023-04-28T08:13:52;100261.53;;;17.73;44.51
73242;BME280;65659;49.234;-2.094;2023-04-28T08:16:07;100262.70;;;17.34;44.42
73242;BME280;65659;49.234;-2.094;2023-04-28T08:21:14;100280.50;;;17.39;43.74
73242;BME280;65659;49.234;-2.094;2023-04-28T08:23:26;100280.86;;;17.65;43.67
73242;BME280;65659;49.234;-2.094;2023-04-28T08:25:53;100281.98;;;17.84;43.53
73242;BME280;65659;49.234;-2.094;2023-04-28T08:28:25;100292.64;;;17.83;43.95
73242;BME280;65659;49.234;-2.094;2023-04-28T08:30:48;100279.88;;;17.69;44.25
73242;BME280;65659;49.234;-2.094;2023-04-28T08:33:06;100287.35;;;17.55;44.34
73242;BME280;65659;49.234;-2.094;2023-04-28T08:35:34;100290.10;;;17.70;43.89
73242;BME280;65659;49.234;-2.094;2023-04-28T08:38:18;100288.59;;;17.77;43.68
73242;BME280;65659;49.234;-2.094;2023-04-28T08:40:26;100289.68;;;18.14;43.51
73242;BME280;65659;49.234;-2.094;2023-04-28T08:42:56;100291.07;;;18.27;43.24
73242;BME280;65659;49.234;-2.094;2023-04-28T08:47:55;100295.83;;;17.74;43.52
73242;BME280;65659;49.234;-2.094;2023-04-28T08:52:51;100301.31;;;17.83;43.44
73242;BME280;65659;49.234;-2.094;2023-04-28T08:55:16;100302.33;;;17.63;43.65
73242;BME280;65659;49.234;-2.094;2023-04-28T08:57:31;100303.06;;;17.93;43.30
73242;BME280;65659;49.234;-2.094;2023-04-28T09:00:02;100310.50;;;18.20;42.95
73242;BME280;65659;49.234;-2.094;2023-04-28T09:02:34;100319.15;;;18.68;43.00
73242;BME280;65659;49.234;-2.094;2023-04-28T09:04:54;100318.43;;;17.88;43.09
73242;BME280;65659;49.234;-2.094;2023-04-28T09:07:22;100321.12;;;18.11;42.88
73242;BME280;65659;49.234;-2.094;2023-04-28T09:09:43;100323.45;;;18.37;42.84
73242;BME280;65659;49.234;-2.094;2023-04-28T09:14:23;100330.35;;;18.52;42.49
73242;BME280;65659;49.234;-2.094;2023-04-28T09:16:55;100338.13;;;18.34;42.18
73242;BME280;65659;49.234;-2.094;2023-04-28T09:19:37;100342.82;;;18.52;41.99
73242;BME280;65659;49.234;-2.094;2023-04-28T09:21:46;100347.91;;;19.09;42.11
73242;BME280;65659;49.234;-2.094;2023-04-28T09:24:08;100354.16;;;19.10;41.77
73242;BME280;65659;49.234;-2.094;2023-04-28T09:31:38;100368.35;;;19.52;41.61
73242;BME280;65659;49.234;-2.094;2023-04-28T09:34:11;100370.97;;;19.17;41.84
73242;BME280;65659;49.234;-2.094;2023-04-28T09:36:12;100377.12;;;18.83;41.82
73242;BME280;65659;49.234;-2.094;2023-04-28T09:38:42;100375.01;;;18.81;41.45
73242;BME280;65659;49.234;-2.094;2023-04-28T09:41:07;100381.54;;;19.14;41.00
73242;BME280;65659;49.234;-2.094;2023-04-28T09:43:32;100383.47;;;19.09;41.08
73242;BME280;65659;49.234;-2.094;2023-04-28T09:45:57;100379.26;;;18.66;40.80
73242;BME280;65659;49.234;-2.094;2023-04-28T09:48:26;100382.82;;;18.86;40.24
73242;BME280;65659;49.234;-2.094;2023-04-28T09:50:46;100376.56;;;18.91;40.50
73242;BME280;65659;49.234;-2.094;2023-04-28T09:53:12;100379.02;;;19.12;40.39
73242;BME280;65659;49.234;-2.094;2023-04-28T09:55:44;100386.13;;;18.88;40.40
73242;BME280;65659;49.234;-2.094;2023-04-28T09:58:07;100391.02;;;19.04;40.15
73242;BME280;65659;49.234;-2.094;2023-04-28T10:00:35;100391.10;;;18.87;40.22
73242;BME280;65659;49.234;-2.094;2023-04-28T10:02:56;100392.29;;;19.05;40.15
73242;BME280;65659;49.234;-2.094;2023-04-28T10:05:23;100392.00;;;19.61;40.18
73242;BME280;65659;49.234;-2.094;2023-04-28T10:07:48;100390.24;;;19.02;40.50
73242;BME280;65659;49.234;-2.094;2023-04-28T10:10:22;100398.80;;;19.07;40.92
73242;BME280;65659;49.234;-2.094;2023-04-28T10:12:50;100393.61;;;19.20;40.94
73242;BME280;65659;49.234;-2.094;2023-04-28T10:15:20;100397.36;;;19.29;40.62
73242;BME280;65659;49.234;-2.094;2023-04-28T10:20:06;100398.62;;;19.51;41.04
73242;BME280;65659;49.234;-2.094;2023-04-28T10:22:51;100393.62;;;19.12;40.90
73242;BME280;65659;49.234;-2.094;2023-04-28T10:25:07;100400.74;;;19.41;40.28
73242;BME280;65659;49.234;-2.094;2023-04-28T10:27:20;100402.69;;;19.55;40.27
73242;BME280;65659;49.234;-2.094;2023-04-28T10:32:23;100419.53;;;19.86;40.77
73242;BME280;65659;49.234;-2.094;2023-04-28T10:37:16;100418.42;;;19.23;40.42
73242;BME280;65659;49.234;-2.094;2023-04-28T10:39:40;100414.38;;;19.23;39.86
73242;BME280;65659;49.234;-2.094;2023-04-28T10:44:43;100419.51;;;19.21;40.64
73242;BME280;65659;49.234;-2.094;2023-04-28T10:49:20;100424.62;;;19.53;39.98
73242;BME280;65659;49.234;-2.094;2023-04-28T10:51:39;100431.55;;;19.06;40.12
73242;BME280;65659;49.234;-2.094;2023-04-28T10:54:15;100440.20;;;19.29;39.94
73242;BME280;65659;49.234;-2.094;2023-04-28T10:56:27;100439.30;;;19.01;40.04
73242;BME280;65659;49.234;-2.094;2023-04-28T10:58:54;100443.39;;;19.28;40.09
73242;BME280;65659;49.234;-2.094;2023-04-28T11:04:00;100439.64;;;19.20;40.17
73242;BME280;65659;49.234;-2.094;2023-04-28T11:06:23;100444.09;;;19.56;39.67
73242;BME280;65659;49.234;-2.094;2023-04-28T11:08:55;100448.47;;;19.33;39.35
73242;BME280;65659;49.234;-2.094;2023-04-28T11:13:47;100449.66;;;19.45;38.83
73242;BME280;65659;49.234;-2.094;2023-04-28T11:16:09;100448.93;;;19.52;38.68
73242;BME280;65659;49.234;-2.094;2023-04-28T11:20:48;100434.99;;;19.65;38.64
73242;BME280;65659;49.234;-2.094;2023-04-28T11:23:18;100437.90;;;19.32;38.74
73242;BME280;65659;49.234;-2.094;2023-04-28T11:28:07;100445.14;;;19.52;38.73
73242;BME280;65659;49.234;-2.094;2023-04-28T11:30:26;100447.08;;;19.33;38.71
73242;BME280;65659;49.234;-2.094;2023-04-28T11:32:58;100449.33;;;19.91;38.65
73242;BME280;65659;49.234;-2.094;2023-04-28T11:35:24;100448.85;;;19.68;38.46
73242;BME280;65659;49.234;-2.094;2023-04-28T11:37:41;100436.71;;;19.59;38.63
73242;BME280;65659;49.234;-2.094;2023-04-28T11:40:11;100430.31;;;19.58;38.45
73242;BME280;65659;49.234;-2.094;2023-04-28T11:45:25;100436.06;;;19.55;38.26
73242;BME280;65659;49.234;-2.094;2023-04-28T11:47:34;100442.62;;;20.06;38.47
73242;BME280;65659;49.234;-2.094;2023-04-28T11:50:00;100448.05;;;19.67;38.63
73242;BME280;65659;49.234;-2.094;2023-04-28T11:52:26;100451.21;;;19.31;38.66
73242;BME280;65659;49.234;-2.094;2023-04-28T11:57:19;100448.95;;;19.80;38.37
73242;BME280;65659;49.234;-2.094;2023-04-28T11:59:39;100455.53;;;19.67;38.49
73242;BME280;65659;49.234;-2.094;2023-04-28T12:04:47;100450.67;;;19.81;38.79
73242;BME280;65659;49.234;-2.094;2023-04-28T12:07:04;100453.18;;;20.08;38.72
73242;BME280;65659;49.234;-2.094;2023-04-28T12:09:31;100445.07;;;20.16;39.02
73242;BME280;65659;49.234;-2.094;2023-04-28T12:14:15;100443.70;;;19.70;39.31
73242;BME280;65659;49.234;-2.094;2023-04-28T12:16:55;100441.40;;;20.07;39.18
73242;BME280;65659;49.234;-2.094;2023-04-28T12:23:58;100467.86;;;20.05;39.02
73242;BME280;65659;49.234;-2.094;2023-04-28T12:26:24;100470.55;;;19.63;38.97
73242;BME280;65659;49.234;-2.094;2023-04-28T12:28:47;100469.61;;;20.13;38.54
73242;BME280;65659;49.234;-2.094;2023-04-28T12:31:27;100471.25;;;19.65;38.54
73242;BME280;65659;49.234;-2.094;2023-04-28T12:33:37;100476.19;;;19.92;38.63
73242;BME280;65659;49.234;-2.094;2023-04-28T12:36:00;100477.74;;;20.15;39.03
73242;BME280;65659;49.234;-2.094;2023-04-28T12:38:37;100478.11;;;19.92;39.05
73242;BME280;65659;49.234;-2.094;2023-04-28T12:40:52;100472.94;;;19.56;38.97
73242;BME280;65659;49.234;-2.094;2023-04-28T12:43:18;100469.88;;;19.70;38.70
73242;BME280;65659;49.234;-2.094;2023-04-28T12:45:49;100462.51;;;19.62;38.77
73242;BME280;65659;49.234;-2.094;2023-04-28T12:48:11;100461.93;;;19.73;38.60
73242;BME280;65659;49.234;-2.094;2023-04-28T12:50:43;100464.52;;;19.69;38.61
73242;BME280;65659;49.234;-2.094;2023-04-28T12:53:10;100471.62;;;20.19;38.64
73242;BME280;65659;49.234;-2.094;2023-04-28T12:55:32;100475.24;;;19.68;38.43
73242;BME280;65659;49.234;-2.094;2023-04-28T12:58:02;100476.95;;;20.16;38.37
73242;BME280;65659;49.234;-2.094;2023-04-28T13:00:24;100473.89;;;20.23;38.35
73242;BME280;65659;49.234;-2.094;2023-04-28T13:02:43;100472.94;;;20.09;38.16
73242;BME280;65659;49.234;-2.094;2023-04-28T13:05:15;100474.37;;;20.09;38.10
73242;BME280;65659;49.234;-2.094;2023-04-28T13:07:42;100474.27;;;20.19;37.95
73242;BME280;65659;49.234;-2.094;2023-04-28T13:10:09;100482.92;;;20.21;38.05
73242;BME280;65659;49.234;-2.094;2023-04-28T13:12:37;100489.08;;;20.69;37.75
73242;BME280;65659;49.234;-2.094;2023-04-28T13:15:03;100486.81;;;20.00;37.98
73242;BME280;65659;49.234;-2.094;2023-04-28T13:17:31;100478.40;;;19.87;38.23
73242;BME280;65659;49.234;-2.094;2023-04-28T13:19:55;100472.99;;;20.16;38.26
73242;BME280;65659;49.234;-2.094;2023-04-28T13:22:24;100474.22;;;20.03;38.21
73242;BME280;65659;49.234;-2.094;2023-04-28T13:24:45;100477.77;;;19.69;38.35